createdAt,value
2017-12-29T00:02:19.459Z,23.32
2017-12-29T00:18:04.005Z,23.13
2017-12-29T01:16:40.289Z,22.99
2017-12-29T01:41:23.244Z,22.70
2017-12-29T02:18:20.950Z,22.69
2017-12-29T02:21:16.729Z,22.69
2017-12-29T02:27:23.043Z,22.68
2017-12-29T02:30:14.822Z,22.67
2017-12-29T02:33:07.979Z,22.65
2017-12-29T02:35:47.558Z,22.68
2017-12-29T02:44:30.934Z,22.72
2017-12-29T02:47:18.087Z,22.72
2017-12-29T02:50:07.433Z,22.71
2017-12-29T02:52:58.715Z,22.73
2017-12-29T02:56:00.045Z,22.68
2017-12-29T02:58:41.024Z,22.68
2017-12-29T03:12:17.559Z,22.58
2017-12-29T03:14:55.496Z,22.56
2017-12-29T03:17:43.220Z,22.57
2017-12-29T03:20:18.175Z,22.57
2017-12-29T03:22:56.608Z,22.59
2017-12-29T03:25:36.391Z,22.57
2017-12-29T03:28:11.118Z,22.59
2017-12-29T03:30:49.484Z,22.61
2017-12-29T03:33:23.046Z,22.60
2017-12-29T03:35:56.188Z,22.65
2017-12-29T03:38:30.612Z,22.61
2017-12-29T03:41:04.470Z,22.61
2017-12-29T03:43:43.174Z,22.60
2017-12-29T03:46:20.304Z,22.59
2017-12-29T03:48:54.790Z,22.54
2017-12-29T03:51:37.808Z,22.53
2017-12-29T03:54:14.981Z,22.53
2017-12-29T03:56:52.931Z,22.54
2017-12-29T03:59:30.365Z,22.57
2017-12-29T04:02:09.149Z,22.55
2017-12-29T04:04:46.531Z,22.51
2017-12-29T04:07:24.091Z,22.50
2017-12-29T04:09:58.964Z,22.49
2017-12-29T04:12:37.652Z,22.46
2017-12-29T04:15:16.047Z,22.45
2017-12-29T04:17:52.867Z,22.43
2017-12-29T04:20:29.282Z,22.47
2017-12-29T04:23:03.078Z,22.46
2017-12-29T04:25:39.774Z,22.48
2017-12-29T04:28:17.491Z,22.49
2017-12-29T04:30:49.546Z,22.49
2017-12-29T04:33:25.429Z,22.51
2017-12-29T04:36:02.656Z,22.47
2017-12-29T04:38:39.066Z,22.48
2017-12-29T04:41:17.215Z,22.46
2017-12-29T04:43:55.837Z,22.45
2017-12-29T04:46:32.358Z,22.46
2017-12-29T04:49:08.780Z,22.42
2017-12-29T04:51:43.629Z,22.37
2017-12-29T04:54:20.176Z,22.29
2017-12-29T04:56:59.602Z,22.35
2017-12-29T04:59:36.387Z,22.39
2017-12-29T05:02:21.684Z,22.36
2017-12-29T05:05:02.474Z,22.36
2017-12-29T05:07:38.632Z,22.38
2017-12-29T05:10:18.140Z,22.36
2017-12-29T05:12:55.020Z,22.34
2017-12-29T05:15:31.054Z,22.31
2017-12-29T05:18:08.593Z,22.31
2017-12-29T05:20:44.312Z,22.33
2017-12-29T05:23:29.244Z,22.36
2017-12-29T05:26:06.079Z,22.33
2017-12-29T05:28:42.687Z,22.32
2017-12-29T05:31:20.227Z,22.34
2017-12-29T05:33:56.010Z,22.36
2017-12-29T05:36:32.283Z,22.31
2017-12-29T05:39:10.108Z,22.20
2017-12-29T05:41:46.344Z,22.16
2017-12-29T05:44:25.535Z,22.14
2017-12-29T05:47:13.610Z,22.17
2017-12-29T05:49:50.491Z,22.22
2017-12-29T05:52:28.147Z,22.22
2017-12-29T05:55:04.737Z,22.24
2017-12-29T05:57:41.539Z,22.27
2017-12-29T06:00:19.249Z,22.27
2017-12-29T06:02:55.215Z,22.27
2017-12-29T06:05:33.036Z,22.23
2017-12-29T06:08:11.872Z,22.22
2017-12-29T06:10:48.419Z,22.15
2017-12-29T06:13:25.952Z,22.17
2017-12-29T06:16:02.586Z,22.15
2017-12-29T06:18:39.137Z,22.11
2017-12-29T06:21:15.104Z,22.11
2017-12-29T06:23:50.934Z,22.10
2017-12-29T06:26:28.108Z,22.10
2017-12-29T06:29:04.030Z,22.09
2017-12-29T06:31:39.791Z,22.09
2017-12-29T06:34:17.160Z,22.18
2017-12-29T06:36:50.424Z,22.19
2017-12-29T06:39:23.596Z,22.18
2017-12-29T06:41:56.273Z,22.19
2017-12-29T06:44:28.083Z,22.19
2017-12-29T06:47:01.544Z,22.21
2017-12-29T06:49:33.663Z,22.21
2017-12-29T06:52:05.982Z,22.20
2017-12-29T06:54:39.902Z,22.20
2017-12-29T06:57:13.171Z,22.09
2017-12-29T06:59:46.859Z,22.12
2017-12-29T07:02:20.134Z,22.09
2017-12-29T07:04:53.342Z,22.08
2017-12-29T07:07:28.480Z,22.06
2017-12-29T07:10:01.804Z,22.10
2017-12-29T07:12:35.168Z,22.08
2017-12-29T07:15:09.617Z,22.12
2017-12-29T07:17:43.049Z,22.12
2017-12-29T07:20:16.367Z,22.09
2017-12-29T07:22:51.796Z,22.10
2017-12-29T07:25:24.649Z,22.11
2017-12-29T07:27:58.075Z,22.14
2017-12-29T07:30:32.748Z,22.06
2017-12-29T07:33:05.566Z,22.07
2017-12-29T07:35:39.044Z,22.12
2017-12-29T07:38:12.964Z,22.14
2017-12-29T07:40:46.037Z,22.11
2017-12-29T07:43:19.148Z,22.14
2017-12-29T07:45:51.802Z,22.16
2017-12-29T07:48:24.862Z,22.18
2017-12-29T07:50:58.410Z,22.16
2017-12-29T07:53:31.842Z,22.17
2017-12-29T07:56:04.722Z,22.14
2017-12-29T07:58:38.356Z,22.20
2017-12-29T08:01:12.773Z,22.13
2017-12-29T08:03:47.598Z,22.21
2017-12-29T08:06:23.425Z,22.21
2017-12-29T08:08:56.823Z,22.23
2017-12-29T08:11:30.669Z,22.28
2017-12-29T08:16:40.628Z,22.30
2017-12-29T08:19:14.087Z,22.29
2017-12-29T08:21:47.951Z,22.27
2017-12-29T08:24:20.825Z,22.23
2017-12-29T08:26:53.866Z,22.31
2017-12-29T08:29:28.180Z,22.34
2017-12-29T08:32:01.832Z,22.32
2017-12-29T08:34:36.058Z,22.32
2017-12-29T08:37:09.677Z,22.31
2017-12-29T08:39:42.406Z,22.35
2017-12-29T08:42:15.148Z,22.32
2017-12-29T08:44:48.263Z,22.34
2017-12-29T08:47:21.318Z,22.37
2017-12-29T08:49:54.367Z,22.35
2017-12-29T08:52:27.759Z,22.29
2017-12-29T08:54:59.795Z,22.33
2017-12-29T08:57:46.270Z,22.31
2017-12-29T09:00:26.636Z,22.35
2017-12-29T09:05:27.610Z,22.32
2017-12-29T09:07:59.907Z,22.36
2017-12-29T09:10:33.498Z,22.35
2017-12-29T09:13:06.180Z,22.40
2017-12-29T09:15:39.685Z,22.36
2017-12-29T09:18:18.849Z,22.39
2017-12-29T09:20:51.627Z,22.39
2017-12-29T09:23:24.400Z,22.44
2017-12-29T09:25:56.631Z,22.44
2017-12-29T09:28:30.384Z,22.50
2017-12-29T09:31:03.092Z,22.46
2017-12-29T09:33:35.837Z,22.50
2017-12-29T09:36:09.528Z,22.53
2017-12-29T09:38:42.530Z,22.54
2017-12-29T09:41:15.850Z,22.51
2017-12-29T09:43:48.369Z,22.54
2017-12-29T09:46:21.273Z,22.51
2017-12-29T09:49:08.760Z,22.50
2017-12-29T09:51:43.063Z,22.52
2017-12-29T09:54:47.463Z,22.50
2017-12-29T10:09:42.379Z,22.54
2017-12-29T10:15:52.417Z,22.53
2017-12-29T10:21:25.996Z,22.57
2017-12-29T10:24:28.038Z,22.58
2017-12-29T10:27:11.359Z,22.58
2017-12-29T10:39:05.967Z,22.60
2017-12-29T10:41:51.546Z,22.58
2017-12-29T10:44:39.783Z,22.60
2017-12-29T10:47:14.007Z,22.60
2017-12-29T10:52:32.638Z,22.58
2017-12-29T10:55:09.812Z,22.57
2017-12-29T10:57:46.082Z,22.59
2017-12-29T11:00:30.013Z,22.57
2017-12-29T11:03:08.167Z,22.70
2017-12-29T11:09:02.934Z,22.80
2017-12-29T11:11:47.706Z,22.85
2017-12-29T11:14:22.679Z,22.91
2017-12-29T11:17:04.473Z,22.93
2017-12-29T11:19:37.634Z,22.86
2017-12-29T11:22:15.706Z,22.94
2017-12-29T11:25:00.737Z,22.99
2017-12-29T11:27:41.931Z,23.00
2017-12-29T11:35:25.747Z,23.04
2017-12-29T11:44:29.999Z,22.99
2017-12-29T11:47:07.979Z,23.13
2017-12-29T11:49:49.469Z,23.27
2017-12-29T11:52:28.283Z,23.40
2017-12-29T11:55:19.612Z,23.43
2017-12-29T11:58:03.993Z,23.47
2017-12-29T12:00:50.802Z,23.38
2017-12-29T12:03:39.898Z,23.49
2017-12-29T12:06:41.207Z,23.52
2017-12-29T12:09:19.923Z,23.51
2017-12-29T12:18:02.585Z,23.63
2017-12-29T12:20:52.134Z,23.64
2017-12-29T12:23:42.623Z,23.53
2017-12-29T12:27:03.447Z,23.55
2017-12-29T12:39:12.886Z,23.58
2017-12-29T12:45:38.531Z,23.64
2017-12-29T12:48:23.639Z,23.79
2017-12-29T12:54:48.941Z,23.80
2017-12-29T12:57:48.446Z,23.77
2017-12-29T13:00:42.790Z,23.77
2017-12-29T13:03:24.664Z,23.90
2017-12-29T13:27:17.095Z,23.86
2017-12-29T13:35:50.914Z,23.81
2017-12-29T13:51:03.981Z,23.79
2017-12-29T14:12:56.925Z,23.82
2017-12-29T14:33:46.609Z,23.84
2017-12-29T14:45:56.869Z,24.04
2017-12-29T14:49:47.438Z,23.88
2017-12-29T14:56:10.661Z,23.91
2017-12-29T15:05:53.700Z,23.95
2017-12-29T15:18:13.467Z,24.03
2017-12-29T15:21:03.509Z,23.92
2017-12-29T15:24:00.329Z,24.03
2017-12-29T15:30:10.496Z,24.15
2017-12-29T15:53:20.524Z,24.42
2017-12-29T17:30:40.822Z,24.64
2017-12-29T17:33:51.206Z,24.45
2017-12-29T17:37:55.574Z,24.43
2017-12-29T17:40:53.124Z,24.48
2017-12-29T17:44:27.491Z,24.41
2017-12-29T18:08:44.868Z,24.68
2017-12-29T21:41:22.458Z,-143.03
2017-12-29T21:51:19.266Z,-143.03
2017-12-29T22:00:22.475Z,-143.03
2017-12-29T22:06:44.642Z,-143.03
2017-12-29T22:09:54.300Z,-143.03
2017-12-29T22:12:38.674Z,-143.03
2017-12-29T22:15:27.481Z,-143.03
2017-12-29T22:18:37.416Z,-143.03
2017-12-29T22:24:35.397Z,-143.03
2017-12-29T22:27:26.078Z,-143.03
2017-12-29T22:36:49.766Z,-143.03
2017-12-29T22:40:05.861Z,-143.03
2017-12-29T22:45:39.804Z,-143.03
2017-12-29T22:48:33.590Z,-143.03
2017-12-29T22:51:15.760Z,-143.03
2017-12-29T22:54:03.895Z,-143.03
